Portada
METAR-TAF:

METAR-TAF

Aeroports :

Pakse, Laos

latitud: 15-08-02N, longitud: 105-46-55E, altitud: 107 m

Observació

L'informe es va fer fa 26 minuts, a les 04:00 UTC
Vent 4 kt del Nord
Temperatura 30°C
Humitat 52%
Pressió 1014 hPa
Visibilitat 10 km o més
Escasses núvols a una alçada de 2400 ft
Escasses núvols a una alçada de 20000 ft

METAR: VLPS 210400Z 36004KT 9999 FEW024 FEW200 30/19 Q1014 NOSIG

Hora: 11:26 (04:26 UTC)

Pronòstic

L'informe es va fer fa 5 hores i 26 minuts, a les 23:00 UTC
Pronòstic vàlid del 21 a les 00 UTC al 21 a les 24 UTC
Vent 4 kt del Nord-Est
Visibilitat 10 km o més
Escasses núvols a una alçada de 2000 ft
Escasses núvols a una alçada de 20000 ft

TAF: VLPS 202300Z 2100/2124 04004KT 9999 FEW020 FEW200

Observacions i pronòstics meteorològics de més de 4000 aeroports (METAR i TAF).

Les estacions disponibles són els punts grocs i vermells al mapa.

Posi el ratolí al punt desitjat per veure el nom de l'estació.

Feu clic per veure les observacions i els pronòstics meteorològics.

Per canviar el mapa: feu clic els botons verds amb una creu de color negre per apropar; al botó verd amb un guió per allunyar la imatge; o en les fletxes verdes per a mapes adjacents.


METAR-TAF: